Time;durP1;ratioP1;P1;durP2;ratioP2;P2;SDS_P1;SDS_P2;PMS_P1;PMS_P2;Temp;Humidity;BMP_temperature;BMP_pressure;BME280_temperature;BME280_humidity;BME280_pressure;Samples;Min_cycle;Max_cycle;Signal;HPM_P1;HPM_P2
2021/08/20 00:02:29;;;;;;;11.65;9.45;;;;;;;17.80;100.00;100616.94;2615645;31;20038;-52
2021/08/20 00:04:56;;;;;;;11.52;9.45;;;;;;;17.79;100.00;100620.41;2614055;36;20573;-50
2021/08/20 00:07:24;;;;;;;10.70;8.95;;;;;;;17.98;100.00;100622.88;2613797;36;21048;-45
2021/08/20 00:09:55;;;;;;;10.90;9.25;;;;;;;17.92;100.00;100620.31;2614243;31;20061;-46
2021/08/20 00:12:23;;;;;;;11.65;9.13;;;;;;;17.88;100.00;100616.03;2614017;36;20041;-47
2021/08/20 00:14:51;;;;;;;10.80;9.32;;;;;;;17.84;100.00;100615.22;2613992;36;20030;-45
2021/08/20 00:17:18;;;;;;;10.82;8.93;;;;;;;17.85;100.00;100611.75;2613814;36;20034;-45
2021/08/20 00:19:45;;;;;;;13.07;10.38;;;;;;;17.85;100.00;100608.28;2613973;36;20566;-45
2021/08/20 00:22:12;;;;;;;11.70;9.82;;;;;;;17.84;100.00;100612.63;2615575;31;20091;-45
2021/08/20 00:24:39;;;;;;;11.05;9.18;;;;;;;17.86;100.00;100616.06;2613869;31;20058;-48
2021/08/20 00:27:07;;;;;;;9.77;8.80;;;;;;;17.82;100.00;100603.97;2614375;31;20049;-51
2021/08/20 00:29:34;;;;;;;12.93;9.70;;;;;;;17.73;100.00;100604.00;2614307;31;20053;-48
2021/08/20 00:32:01;;;;;;;11.10;9.43;;;;;;;17.75;100.00;100602.31;2614243;36;20042;-47
2021/08/20 00:34:29;;;;;;;12.82;9.23;;;;;;;17.79;100.00;100609.16;2614567;31;20034;-47
2021/08/20 00:36:57;;;;;;;11.38;10.02;;;;;;;17.77;100.00;100598.81;2614361;36;20118;-49
2021/08/20 00:39:24;;;;;;;11.93;10.02;;;;;;;17.73;100.00;100606.59;2616132;31;20613;-45
2021/08/20 00:41:52;;;;;;;12.05;9.57;;;;;;;17.86;100.00;100607.41;2614086;36;20030;-46
2021/08/20 00:44:21;;;;;;;12.48;10.15;;;;;;;17.76;100.00;100604.88;2614490;36;20031;-48
2021/08/20 00:46:48;;;;;;;11.60;9.98;;;;;;;17.86;100.00;100603.09;2615167;31;20070;-47
2021/08/20 00:49:15;;;;;;;10.95;9.65;;;;;;;17.75;100.00;100603.16;2614080;31;20035;-52
2021/08/20 00:51:45;;;;;;;14.77;10.63;;;;;;;17.81;100.00;100605.72;2613695;36;20038;-48
2021/08/20 00:54:13;;;;;;;12.25;10.95;;;;;;;17.50;100.00;100606.69;2614476;31;20031;-46
2021/08/20 00:56:42;;;;;;;13.05;10.05;;;;;;;17.66;100.00;100605.75;2614830;36;20030;-47
2021/08/20 00:59:12;;;;;;;12.00;10.38;;;;;;;17.65;100.00;100605.75;2614763;31;20565;-47
2021/08/20 01:01:39;;;;;;;13.25;10.65;;;;;;;17.75;100.00;100603.16;2615025;31;20061;-46
2021/08/20 01:04:08;;;;;;;11.88;10.45;;;;;;;17.62;100.00;100604.06;2614939;36;20096;-46
2021/08/20 01:06:40;;;;;;;13.65;10.95;;;;;;;17.60;100.00;100597.16;2615997;36;20062;-48
2021/08/20 01:09:08;;;;;;;14.32;11.10;;;;;;;17.54;100.00;100601.50;2614943;36;20035;-45
2021/08/20 01:11:36;;;;;;;13.65;10.88;;;;;;;17.67;100.00;100609.22;2614633;36;20038;-50
2021/08/20 01:14:05;;;;;;;13.52;11.20;;;;;;;17.67;100.00;100604.88;2614539;36;20065;-45
2021/08/20 01:16:33;;;;;;;11.70;10.50;;;;;;;17.61;100.00;100601.44;2615975;31;20494;-47
2021/08/20 01:19:00;;;;;;;15.15;12.02;;;;;;;17.72;100.00;100597.09;2614400;31;20030;-47
2021/08/20 01:21:27;;;;;;;13.75;10.98;;;;;;;17.63;100.00;100595.41;2614534;36;20035;-48
2021/08/20 01:23:59;;;;;;;12.15;10.13;;;;;;;17.58;100.00;100606.66;2614756;36;20031;-47
2021/08/20 01:26:28;;;;;;;12.80;10.60;;;;;;;17.71;100.00;100601.41;2614534;36;20027;-50
2021/08/20 01:28:57;;;;;;;11.88;10.10;;;;;;;17.72;100.00;100592.78;2614457;36;20057;-45
2021/08/20 01:31:24;;;;;;;14.65;11.63;;;;;;;17.60;100.00;100598.00;2615559;31;20022;-45
2021/08/20 01:33:53;;;;;;;17.02;11.25;;;;;;;17.31;100.00;100598.13;2614721;36;20083;-46
2021/08/20 01:36:20;;;;;;;15.25;12.07;;;;;;;17.40;100.00;100600.69;2614690;36;20061;-46
2021/08/20 01:38:54;;;;;;;13.75;11.32;;;;;;;17.59;100.00;100601.47;2614436;36;20030;-48
2021/08/20 01:41:24;;;;;;;14.23;11.73;;;;;;;17.36;100.00;100598.97;2614586;36;20053;-45
2021/08/20 01:43:52;;;;;;;13.95;11.90;;;;;;;17.68;100.00;100601.44;2614687;31;20035;-46
2021/08/20 01:46:19;;;;;;;14.82;11.85;;;;;;;17.52;100.00;100599.78;2614238;36;20034;-47
2021/08/20 01:48:49;;;;;;;14.98;11.75;;;;;;;17.66;100.00;100598.00;2614463;31;20054;-45
2021/08/20 01:51:20;;;;;;;14.45;11.48;;;;;;;17.64;100.00;100598.84;2614230;36;20042;-46
2021/08/20 01:53:48;;;;;;;14.80;12.85;;;;;;;17.53;100.00;100598.91;2614422;36;20030;-46
2021/08/20 01:56:29;;;;;;;15.07;12.98;;;;;;;17.49;100.00;100592.88;2615078;31;20595;-45
2021/08/20 01:58:58;;;;;;;18.25;13.77;;;;;;;17.67;100.00;100602.31;2614881;31;20030;-47
2021/08/20 02:01:29;;;;;;;15.10;13.27;;;;;;;17.51;100.00;100604.09;2614386;36;20060;-47
2021/08/20 02:03:58;;;;;;;17.23;14.45;;;;;;;17.46;100.00;100605.84;2615025;31;20026;-46
2021/08/20 02:06:26;;;;;;;26.40;19.23;;;;;;;17.39;100.00;100605.88;2614075;36;20049;-45
2021/08/20 02:08:53;;;;;;;24.88;19.45;;;;;;;17.27;100.00;100609.34;2614105;36;20049;-46
2021/08/20 02:11:20;;;;;;;28.10;20.08;;;;;;;17.31;100.00;100608.47;2615054;31;20648;-48
2021/08/20 02:13:47;;;;;;;33.15;23.27;;;;;;;17.15;100.00;100604.22;2615201;31;20065;-47
2021/08/20 02:16:14;;;;;;;31.25;21.77;;;;;;;17.13;100.00;100604.22;2615197;31;20173;-46
2021/08/20 02:18:42;;;;;;;30.60;22.30;;;;;;;17.12;100.00;100609.41;2614664;31;21036;-46
2021/08/20 02:21:09;;;;;;;32.83;22.95;;;;;;;16.87;100.00;100611.16;2614906;31;20038;-49
2021/08/20 02:23:38;;;;;;;31.50;22.63;;;;;;;17.08;100.00;100607.69;2614813;31;20038;-48
2021/08/20 02:26:06;;;;;;;30.08;21.58;;;;;;;17.12;100.00;100612.00;2615212;31;20861;-46
2021/08/20 02:28:33;;;;;;;32.05;23.35;;;;;;;16.95;100.00;100615.47;2614065;36;20065;-46
2021/08/20 02:31:00;;;;;;;30.88;22.38;;;;;;;16.77;100.00;100602.56;2614874;31;20847;-45
2021/08/20 02:33:28;;;;;;;33.47;22.67;;;;;;;16.77;100.00;100599.97;2614204;36;20157;-48
2021/08/20 02:35:55;;;;;;;33.55;24.20;;;;;;;16.65;100.00;100595.66;2614221;36;20562;-47
2021/08/20 02:38:22;;;;;;;34.97;23.75;;;;;;;16.48;100.00;100594.78;2614209;36;20026;-47
2021/08/20 02:40:49;;;;;;;33.80;23.80;;;;;;;16.46;100.00;100591.38;2614368;36;20053;-49
2021/08/20 02:43:16;;;;;;;33.20;22.90;;;;;;;16.40;100.00;100597.38;2614780;31;20034;-49
2021/08/20 02:45:43;;;;;;;35.92;23.42;;;;;;;16.60;100.00;100594.81;2614162;36;20061;-49
2021/08/20 02:48:10;;;;;;;32.40;22.73;;;;;;;16.69;100.00;100594.78;2614303;36;20030;-46
2021/08/20 02:50:38;;;;;;;33.08;22.75;;;;;;;16.88;100.00;100593.06;2614179;36;20034;-49
2021/08/20 02:53:05;;;;;;;33.88;23.55;;;;;;;16.98;100.00;100589.59;2615296;31;20069;-47
2021/08/20 02:55:33;;;;;;;31.85;22.85;;;;;;;16.94;100.00;100597.38;2615585;31;20086;-46
2021/08/20 02:58:00;;;;;;;31.58;22.83;;;;;;;16.93;100.00;100596.50;2614941;31;20038;-47
2021/08/20 03:00:27;;;;;;;30.42;22.33;;;;;;;16.93;100.00;100600.81;2615005;31;20041;-45
2021/08/20 03:02:54;;;;;;;32.17;23.17;;;;;;;16.94;100.00;100606.00;2614552;31;20030;-47
2021/08/20 03:05:23;;;;;;;30.40;22.42;;;;;;;16.71;100.00;100602.53;2614243;36;20034;-46
2021/08/20 03:07:50;;;;;;;29.15;21.63;;;;;;;16.72;100.00;100610.31;2614669;36;20431;-47
2021/08/20 03:10:18;;;;;;;30.67;22.85;;;;;;;16.65;100.00;100603.41;2614421;31;20031;-45
2021/08/20 03:12:45;;;;;;;31.52;22.85;;;;;;;16.64;100.00;100608.56;2614844;31;20474;-46
2021/08/20 03:15:12;;;;;;;30.10;21.60;;;;;;;16.90;100.00;100604.25;2614934;31;20037;-46
2021/08/20 03:17:40;;;;;;;30.35;20.70;;;;;;;16.95;100.00;100601.66;2614966;31;20555;-48
2021/08/20 03:20:08;;;;;;;28.10;21.23;;;;;;;16.86;100.00;100607.72;2614967;31;20057;-44
2021/08/20 03:22:35;;;;;;;26.85;20.10;;;;;;;16.77;100.00;100607.72;2614206;36;20038;-48
2021/08/20 03:25:02;;;;;;;27.80;20.33;;;;;;;16.47;100.00;100606.84;2613883;36;20045;-47
2021/08/20 03:27:30;;;;;;;24.25;18.50;;;;;;;16.58;100.00;100613.75;2614453;31;20034;-44
2021/08/20 03:29:57;;;;;;;23.85;18.50;;;;;;;16.77;100.00;100616.34;2614211;36;20067;-45
2021/08/20 03:32:24;;;;;;;24.40;18.08;;;;;;;16.65;100.00;100618.94;2614579;31;20031;-46
2021/08/20 03:34:52;;;;;;;26.63;18.67;;;;;;;16.70;100.00;100608.56;2614419;36;20373;-45
2021/08/20 03:37:19;;;;;;;22.23;17.42;;;;;;;16.68;100.00;100618.91;2614180;36;20780;-44
2021/08/20 03:39:53;;;;;;;25.42;18.67;;;;;;;16.66;100.00;100605.13;2614175;31;20030;-45
2021/08/20 03:42:20;;;;;;;21.40;16.02;;;;;;;16.55;100.00;100609.44;2612913;36;20103;-46
2021/08/20 03:44:47;;;;;;;22.13;16.23;;;;;;;16.60;100.00;100606.88;2612601;31;20065;-45
2021/08/20 03:47:15;;;;;;;19.45;15.13;;;;;;;16.94;100.00;100607.72;2613941;31;20053;-47
2021/08/20 03:49:42;;;;;;;21.08;14.65;;;;;;;16.96;100.00;100618.91;2615002;36;20027;-46
2021/08/20 03:52:09;;;;;;;18.90;14.07;;;;;;;16.95;100.00;100620.63;2614380;31;20057;-45
2021/08/20 03:54:36;;;;;;;18.80;13.80;;;;;;;16.72;100.00;100614.63;2614403;31;20566;-45
2021/08/20 03:57:04;;;;;;;20.40;13.68;;;;;;;16.78;100.00;100617.22;2613518;36;20030;-47
2021/08/20 03:59:31;;;;;;;21.45;13.50;;;;;;;16.53;100.00;100617.19;2614106;31;20030;-45
2021/08/20 04:02:03;;;;;;;19.27;13.32;;;;;;;16.51;100.00;100611.16;2613939;31;20031;-46
2021/08/20 04:04:33;;;;;;;18.83;13.07;;;;;;;16.36;100.00;100611.19;2614081;31;20042;-46
2021/08/20 04:07:00;;;;;;;16.80;12.52;;;;;;;16.60;100.00;100620.66;2613923;36;20077;-47
2021/08/20 04:09:27;;;;;;;15.23;12.15;;;;;;;16.73;100.00;100617.25;2614626;31;20098;-46
2021/08/20 04:11:54;;;;;;;18.55;13.02;;;;;;;16.73;100.00;100622.41;2613725;36;20035;-46
2021/08/20 04:14:21;;;;;;;19.67;13.55;;;;;;;16.83;100.00;100628.44;2613920;36;20038;-45
2021/08/20 04:16:48;;;;;;;16.05;12.82;;;;;;;16.61;100.00;100626.69;2615466;31;20074;-46
2021/08/20 04:19:15;;;;;;;18.23;12.23;;;;;;;16.73;100.00;100635.34;2613718;36;20057;-46
2021/08/20 04:21:44;;;;;;;18.33;12.73;;;;;;;16.57;100.00;100628.41;2615212;31;20031;-45
2021/08/20 04:24:14;;;;;;;16.83;12.77;;;;;;;16.55;100.00;100628.41;2614956;31;20108;-45
2021/08/20 04:26:41;;;;;;;19.10;13.00;;;;;;;16.75;100.00;100625.84;2614936;31;20463;-49
2021/08/20 04:29:09;;;;;;;18.80;12.73;;;;;;;16.58;100.00;100632.69;2614522;31;20065;-45
2021/08/20 04:31:36;;;;;;;19.95;13.40;;;;;;;16.92;100.00;100624.97;2615871;31;20590;-45
2021/08/20 04:34:03;;;;;;;18.92;13.30;;;;;;;16.48;100.00;100634.41;2614479;36;20492;-47
2021/08/20 04:36:30;;;;;;;18.30;12.82;;;;;;;16.34;100.00;100625.78;2614747;31;20162;-46
2021/08/20 04:38:57;;;;;;;17.05;12.05;;;;;;;16.29;100.00;100619.75;2615000;31;20031;-46
2021/08/20 04:41:24;;;;;;;15.32;12.02;;;;;;;16.18;100.00;100621.50;2615097;31;20023;-45
2021/08/20 04:43:51;;;;;;;16.98;12.23;;;;;;;16.45;100.00;100626.66;2614892;31;20038;-48
2021/08/20 04:46:18;;;;;;;15.10;11.70;;;;;;;16.51;100.00;100628.41;2614410;36;20037;-48
2021/08/20 04:48:46;;;;;;;16.35;12.07;;;;;;;16.37;100.00;100625.81;2614326;36;20038;-47
2021/08/20 04:51:13;;;;;;;16.77;12.10;;;;;;;16.41;100.00;100624.09;2615806;31;20031;-46
2021/08/20 04:53:40;;;;;;;17.65;11.98;;;;;;;16.23;100.00;100619.78;2615412;31;20030;-46
2021/08/20 04:56:07;;;;;;;14.93;11.80;;;;;;;16.72;100.00;100628.41;2615358;31;20450;-46
2021/08/20 04:58:35;;;;;;;19.10;12.00;;;;;;;17.03;100.00;100634.44;2614406;36;20030;-46
2021/08/20 05:01:03;;;;;;;15.05;10.80;;;;;;;16.74;100.00;100633.59;2614481;36;20038;-45
2021/08/20 05:03:31;;;;;;;14.90;10.75;;;;;;;16.67;100.00;100637.00;2614998;31;20038;-46
2021/08/20 05:05:59;;;;;;;11.82;10.02;;;;;;;16.47;100.00;100637.88;2614506;36;20454;-45
2021/08/20 05:08:26;;;;;;;16.33;11.52;;;;;;;16.63;100.00;100640.47;2614452;36;20589;-45
2021/08/20 05:10:53;;;;;;;17.80;11.50;;;;;;;16.30;100.00;100635.25;2614706;36;20039;-47
2021/08/20 05:13:20;;;;;;;15.48;11.32;;;;;;;16.42;100.00;100639.59;2614715;36;20061;-45
2021/08/20 05:15:47;;;;;;;17.50;11.63;;;;;;;16.43;100.00;100635.28;2615059;36;20470;-49
2021/08/20 05:18:15;;;;;;;13.02;10.52;;;;;;;16.38;100.00;100632.69;2614825;36;20424;-47
2021/08/20 05:20:42;;;;;;;13.23;10.93;;;;;;;16.39;100.00;100636.16;2614975;31;20030;-47
2021/08/20 05:23:09;;;;;;;13.73;10.20;;;;;;;16.46;100.00;100635.31;2615201;31;20057;-46
2021/08/20 05:25:36;;;;;;;13.70;10.43;;;;;;;16.44;100.00;100640.44;2614796;31;20034;-48
2021/08/20 05:28:04;;;;;;;14.68;9.80;;;;;;;16.59;100.00;100642.19;2614385;31;20038;-46
2021/08/20 05:30:33;;;;;;;15.55;10.65;;;;;;;16.69;100.00;100650.81;2615147;31;20471;-45
2021/08/20 05:33:00;;;;;;;13.07;9.32;;;;;;;17.24;100.00;100643.88;2614549;36;20057;-46
2021/08/20 05:35:27;;;;;;;11.30;9.40;;;;;;;16.99;100.00;100649.97;2615445;31;20443;-50
2021/08/20 05:37:54;;;;;;;12.95;9.07;;;;;;;17.39;100.00;100645.56;2615069;31;20447;-45
2021/08/20 05:40:22;;;;;;;18.75;10.43;;;;;;;17.12;100.00;100648.22;2614517;36;20034;-47
2021/08/20 05:42:49;;;;;;;11.85;9.80;;;;;;;17.47;100.00;100642.94;2615036;31;20031;-46
2021/08/20 05:45:16;;;;;;;11.98;9.30;;;;;;;17.46;100.00;100657.59;2615838;31;20041;-45
2021/08/20 05:47:44;;;;;;;11.98;9.63;;;;;;;17.75;100.00;100660.16;2614383;36;20053;-45
2021/08/20 05:50:11;;;;;;;11.93;9.52;;;;;;;18.02;100.00;100653.09;2615377;31;20030;-45
2021/08/20 05:52:38;;;;;;;12.98;10.55;;;;;;;17.76;100.00;100663.59;2615102;31;20038;-46
2021/08/20 05:55:07;;;;;;;15.15;10.98;;;;;;;17.83;100.00;100662.69;2614707;31;20058;-49
2021/08/20 05:57:34;;;;;;;15.40;11.52;;;;;;;18.02;100.00;100653.94;2615059;31;20057;-45
2021/08/20 06:00:04;;;;;;;12.48;11.02;;;;;;;18.23;100.00;100663.34;2615733;31;20108;-46
2021/08/20 06:02:31;;;;;;;15.82;13.43;;;;;;;18.40;100.00;100655.47;2616186;31;20443;-47
2021/08/20 06:04:58;;;;;;;15.15;13.18;;;;;;;18.35;100.00;100661.53;2614714;36;20042;-47
2021/08/20 06:07:26;;;;;;;13.70;12.25;;;;;;;18.22;100.00;100665.94;2616573;31;20079;-45
2021/08/20 06:09:53;;;;;;;17.52;13.70;;;;;;;18.57;100.00;100666.53;2614298;36;20042;-45
2021/08/20 06:12:20;;;;;;;15.88;13.98;;;;;;;18.44;100.00;100661.47;2615350;31;20061;-46
2021/08/20 06:14:47;;;;;;;17.48;13.57;;;;;;;18.54;100.00;100664.00;2614551;31;20582;-45
2021/08/20 06:17:16;;;;;;;16.00;13.63;;;;;;;18.46;100.00;100665.78;2615016;31;20046;-45
2021/08/20 06:19:44;;;;;;;18.80;15.35;;;;;;;18.70;100.00;100659.56;2615770;31;20034;-46
2021/08/20 06:22:11;;;;;;;20.52;16.50;;;;;;;18.80;100.00;100665.53;2614620;31;20031;-47
2021/08/20 06:24:38;;;;;;;18.95;14.48;;;;;;;18.93;100.00;100661.13;2615139;31;20034;-45
2021/08/20 06:27:05;;;;;;;19.90;15.80;;;;;;;18.80;100.00;100665.53;2615815;36;20030;-46
2021/08/20 06:29:33;;;;;;;18.17;15.13;;;;;;;18.77;100.00;100674.22;2614986;36;20084;-49
2021/08/20 06:32:00;;;;;;;16.13;14.23;;;;;;;18.89;100.00;100674.97;2616223;31;20600;-45
2021/08/20 06:34:30;;;;;;;17.92;15.13;;;;;;;18.78;100.00;100675.94;2614420;31;20038;-45
2021/08/20 06:36:58;;;;;;;18.88;15.35;;;;;;;19.07;99.33;100678.28;2614916;31;20419;-46
2021/08/20 06:39:25;;;;;;;18.67;15.07;;;;;;;18.78;100.00;100673.34;2614391;36;20057;-45
2021/08/20 06:41:52;;;;;;;17.27;14.77;;;;;;;18.75;100.00;100677.69;2614383;31;20030;-45
2021/08/20 06:44:19;;;;;;;19.75;15.82;;;;;;;19.01;97.99;100675.75;2615242;31;20038;-46
2021/08/20 06:46:47;;;;;;;18.15;15.68;;;;;;;18.92;98.15;100672.38;2615266;31;20033;-45
2021/08/20 06:49:14;;;;;;;20.25;15.43;;;;;;;18.92;99.78;100674.97;2614805;31;20063;-45
2021/08/20 06:51:41;;;;;;;17.00;15.15;;;;;;;18.98;100.00;100693.06;2615096;31;20558;-45
2021/08/20 06:54:08;;;;;;;19.40;15.52;;;;;;;19.02;97.61;100687.84;2614605;36;20546;-48
2021/08/20 06:56:35;;;;;;;19.23;16.80;;;;;;;18.97;96.63;100683.56;2616104;31;20057;-47
2021/08/20 06:59:03;;;;;;;19.08;15.57;;;;;;;19.02;95.82;100685.25;2614346;36;20037;-46
2021/08/20 07:01:30;;;;;;;18.80;16.05;;;;;;;19.18;96.38;100683.38;2613780;36;20026;-51
2021/08/20 07:03:59;;;;;;;21.35;16.98;;;;;;;19.13;93.14;100676.50;2614051;36;20038;-46
2021/08/20 07:06:27;;;;;;;19.48;16.55;;;;;;;19.17;93.68;100678.19;2615023;31;20034;-48
2021/08/20 07:08:55;;;;;;;18.45;15.63;;;;;;;19.34;92.22;100671.09;2615195;31;20563;-47
2021/08/20 07:11:24;;;;;;;17.85;15.48;;;;;;;19.40;94.15;100678.81;2614266;36;20041;-46
2021/08/20 07:13:52;;;;;;;18.63;14.55;;;;;;;19.58;89.45;100678.59;2614505;36;20022;-45
2021/08/20 07:16:19;;;;;;;17.23;15.30;;;;;;;19.75;86.58;100686.25;2615416;31;20482;-46
2021/08/20 07:18:46;;;;;;;17.85;14.20;;;;;;;19.52;88.25;100689.06;2615010;31;20678;-50
2021/08/20 07:21:13;;;;;;;17.20;13.63;;;;;;;19.56;88.13;100680.38;2615776;31;20082;-44
2021/08/20 07:23:41;;;;;;;17.92;13.15;;;;;;;19.43;89.26;100688.31;2615207;31;20585;-47
2021/08/20 07:26:08;;;;;;;16.42;14.43;;;;;;;19.15;87.92;100683.41;2614235;36;20042;-44
2021/08/20 07:28:35;;;;;;;15.15;13.38;;;;;;;19.17;89.51;100694.63;2614772;36;20042;-43
2021/08/20 07:31:04;;;;;;;16.45;13.18;;;;;;;19.12;87.80;100687.75;2615381;31;20035;-44
2021/08/20 07:33:31;;;;;;;17.80;14.15;;;;;;;19.16;89.31;100695.50;2615623;31;20108;-48
2021/08/20 07:35:59;;;;;;;17.27;12.68;;;;;;;19.21;89.84;100698.06;2614925;36;20039;-44
2021/08/20 07:38:26;;;;;;;16.05;13.45;;;;;;;19.28;89.53;100691.94;2615579;31;20126;-43
2021/08/20 07:40:53;;;;;;;13.90;12.48;;;;;;;19.48;89.24;100691.72;2615332;31;20038;-44
2021/08/20 07:43:21;;;;;;;16.48;12.88;;;;;;;19.44;89.01;100690.03;2615892;31;20030;-43
2021/08/20 07:45:48;;;;;;;16.45;13.73;;;;;;;19.26;88.50;100694.53;2614433;36;20031;-45
2021/08/20 07:48:15;;;;;;;16.05;12.13;;;;;;;19.55;87.08;100695.94;2614175;36;20030;-44
2021/08/20 07:50:47;;;;;;;13.43;12.02;;;;;;;19.71;85.30;100696.69;2614810;31;20065;-44
2021/08/20 07:53:16;;;;;;;14.82;12.10;;;;;;;19.86;87.76;100698.22;2615238;31;20450;-45
2021/08/20 07:55:48;;;;;;;14.50;11.38;;;;;;;20.05;86.04;100697.97;2578566;31;2004575;-49
2021/08/20 07:58:15;;;;;;;14.57;13.05;;;;;;;19.80;83.54;100702.63;2614028;36;20322;-45
2021/08/20 08:00:43;;;;;;;12.98;11.25;;;;;;;20.24;85.16;100703.78;2614379;36;20057;-45
2021/08/20 08:03:11;;;;;;;15.98;11.82;;;;;;;19.98;84.03;100704.16;2614659;31;20667;-44
2021/08/20 08:05:38;;;;;;;14.52;12.20;;;;;;;20.04;82.26;100703.19;2614725;31;20054;-47
2021/08/20 08:08:06;;;;;;;11.77;10.38;;;;;;;19.89;84.45;100709.47;2614575;36;20419;-44
2021/08/20 08:10:33;;;;;;;12.55;11.25;;;;;;;19.53;85.07;100701.16;2614267;36;20048;-43
2021/08/20 08:13:00;;;;;;;13.82;11.80;;;;;;;19.42;86.44;100705.63;2614354;36;20038;-45
2021/08/20 08:15:27;;;;;;;14.60;11.77;;;;;;;19.33;85.40;100709.19;2614950;36;20443;-49
2021/08/20 08:17:57;;;;;;;14.15;11.35;;;;;;;19.44;85.84;100714.25;2614505;36;20432;-46
2021/08/20 08:20:25;;;;;;;13.98;11.60;;;;;;;19.36;87.30;100710.88;2615229;36;20428;-49
2021/08/20 08:22:52;;;;;;;13.52;11.82;;;;;;;19.64;85.07;100713.22;2614319;36;20038;-51
2021/08/20 08:25:20;;;;;;;15.75;11.23;;;;;;;19.52;86.21;100722.84;2614710;36;20061;-47
2021/08/20 08:27:52;;;;;;;13.00;11.40;;;;;;;19.88;84.81;100723.34;2614224;31;20034;-47
2021/08/20 08:30:20;;;;;;;13.93;11.70;;;;;;;19.82;84.04;100716.44;2614462;36;20034;-46
2021/08/20 08:32:47;;;;;;;13.98;12.32;;;;;;;19.97;84.09;100724.97;2614034;36;20061;-46
2021/08/20 08:35:15;;;;;;;12.13;10.82;;;;;;;20.32;81.49;100725.34;2614188;36;20035;-48
2021/08/20 08:37:42;;;;;;;12.90;10.98;;;;;;;20.24;81.43;100723.72;2613857;36;20042;-46
2021/08/20 08:40:10;;;;;;;15.52;11.40;;;;;;;19.92;83.91;100732.81;2614605;31;20034;-47
2021/08/20 08:42:38;;;;;;;13.90;11.18;;;;;;;19.86;84.14;100740.66;2614231;36;20037;-47
2021/08/20 08:45:06;;;;;;;16.13;13.60;;;;;;;19.33;85.55;100737.75;2614160;31;20065;-44
2021/08/20 08:47:36;;;;;;;16.65;11.27;;;;;;;19.18;88.21;100745.69;2614392;31;20030;-46
2021/08/20 08:50:06;;;;;;;16.17;11.48;;;;;;;18.94;85.50;100740.69;2615048;31;20323;-46
2021/08/20 08:52:33;;;;;;;14.48;10.93;;;;;;;18.68;87.92;100746.91;2614436;31;20613;-46
2021/08/20 08:55:02;;;;;;;12.50;11.13;;;;;;;18.61;88.71;100750.41;2614578;36;20038;-43
2021/08/20 08:57:30;;;;;;;11.25;10.00;;;;;;;18.71;88.67;100756.41;2614733;31;20035;-45
2021/08/20 08:59:57;;;;;;;15.07;10.93;;;;;;;18.47;90.44;100762.59;2615515;31;20038;-44
2021/08/20 09:02:25;;;;;;;13.23;10.70;;;;;;;18.25;91.54;100762.69;2615325;31;20038;-46
2021/08/20 09:04:55;;;;;;;14.40;10.65;;;;;;;18.32;91.96;100771.31;2613796;36;20035;-49
2021/08/20 09:07:24;;;;;;;17.60;11.82;;;;;;;18.13;96.80;100773.13;2614970;31;20081;-48
2021/08/20 09:10:19;;;;;;;13.98;12.48;;;;;;;18.04;96.60;100765.38;2614740;31;20046;-47
2021/08/20 09:12:49;;;;;;;16.45;13.27;;;;;;;18.04;98.08;100773.16;2578285;36;2004648;-44
2021/08/20 09:15:18;;;;;;;14.30;12.30;;;;;;;18.02;99.97;100773.16;2613933;36;20027;-47
2021/08/20 09:17:50;;;;;;;15.73;12.98;;;;;;;18.08;100.00;100769.69;2614737;36;20030;-44
2021/08/20 09:20:22;;;;;;;15.82;12.60;;;;;;;18.10;100.00;100778.31;2614692;36;20030;-47
2021/08/20 09:22:51;;;;;;;17.08;13.23;;;;;;;18.17;99.75;100784.34;2614715;31;20038;-45
2021/08/20 09:25:39;;;;;;;15.63;12.50;;;;;;;18.36;98.95;100787.72;2615136;36;20435;-44
2021/08/20 09:28:24;;;;;;;18.15;13.63;;;;;;;18.21;99.28;100788.63;2614304;36;20042;-44
2021/08/20 09:30:53;;;;;;;18.65;13.13;;;;;;;18.24;97.76;100783.44;2578635;36;2004580;-47
2021/08/20 09:33:24;;;;;;;17.25;14.10;;;;;;;18.16;98.49;100778.28;2615124;31;20038;-46
2021/08/20 09:36:06;;;;;;;17.60;14.07;;;;;;;18.05;100.00;100782.66;2615292;31;20555;-47
2021/08/20 09:38:37;;;;;;;17.20;13.43;;;;;;;18.48;100.00;100783.31;2614140;36;20034;-47
2021/08/20 09:41:11;;;;;;;20.80;13.77;;;;;;;18.55;99.99;100772.06;2614729;36;20038;-47
2021/08/20 09:43:41;;;;;;;16.83;13.00;;;;;;;18.83;95.67;100783.16;2614759;31;20034;-51
2021/08/20 09:46:16;;;;;;;14.68;12.68;;;;;;;18.98;95.47;100792.56;2633725;36;20533;-46
2021/08/20 09:48:48;;;;;;;;;;;;;;;19.13;95.92;100780.31;2614218;36;20043;-45
2021/08/20 09:51:39;;;;;;;17.55;12.75;;;;;;;19.25;93.74;100783.69;2578475;31;2004246;-48
2021/08/20 09:54:15;;;;;;;17.48;13.80;;;;;;;19.51;92.96;100785.19;2614955;31;20065;-44
2021/08/20 09:56:56;;;;;;;14.70;12.20;;;;;;;20.05;89.69;100773.34;2578713;31;2004374;-43
2021/08/20 09:59:30;;;;;;;15.18;12.70;;;;;;;20.40;86.27;100776.41;2614833;31;20594;-46
2021/08/20 10:02:03;;;;;;;16.27;12.90;;;;;;;20.39;84.37;100788.56;2614536;36;20061;-47
2021/08/20 10:04:32;;;;;;;15.52;13.18;;;;;;;20.21;86.07;100778.41;2614704;31;20031;-47
2021/08/20 10:07:00;;;;;;;16.30;13.55;;;;;;;20.37;88.32;100779.91;2614078;36;20030;-47
2021/08/20 10:09:29;;;;;;;14.80;12.85;;;;;;;20.62;87.17;100775.28;2615136;31;20169;-47
2021/08/20 10:12:00;;;;;;;15.48;13.27;;;;;;;20.57;86.71;100777.94;2613895;36;20038;-47
2021/08/20 10:14:30;;;;;;;16.23;13.00;;;;;;;20.54;85.14;100777.97;2613970;31;20041;-45
2021/08/20 10:16:57;;;;;;;19.23;13.20;;;;;;;20.70;79.69;100769.94;2614549;31;20053;-45
2021/08/20 10:19:25;;;;;;;15.70;13.65;;;;;;;21.53;77.10;100778.13;2614363;31;20564;-49
2021/08/20 10:21:52;;;;;;;11.88;10.63;;;;;;;23.74;68.94;100787.16;2614874;31;20559;-48
2021/08/20 10:24:19;;;;;;;15.70;10.82;;;;;;;25.41;62.78;100784.69;2615551;31;20037;-48
2021/08/20 10:26:55;;;;;;;15.38;11.60;;;;;;;26.50;57.65;100789.53;2614686;36;20459;-48
2021/08/20 10:29:25;;;;;;;12.98;10.45;;;;;;;26.78;57.85;100781.41;2615727;31;20030;-49
2021/08/20 10:31:53;;;;;;;12.38;11.02;;;;;;;26.90;53.11;100787.91;2614424;36;20034;-49
2021/08/20 10:34:29;;;;;;;11.35;10.23;;;;;;;28.61;49.02;100784.84;2614194;36;20035;-47
2021/08/20 10:37:24;;;;;;;13.95;11.20;;;;;;;30.32;47.43;100785.78;2614818;31;20025;-49
2021/08/20 10:39:54;;;;;;;11.20;9.88;;;;;;;31.58;39.91;100798.81;2578355;31;2004414;-46
2021/08/20 10:42:36;;;;;;;10.30;9.23;;;;;;;29.39;47.45;100776.56;2614851;31;20106;-49
2021/08/20 10:45:07;;;;;;;11.07;9.73;;;;;;;30.24;45.17;100791.50;2614879;31;20586;-49
2021/08/20 10:47:34;;;;;;;12.63;8.70;;;;;;;28.96;47.93;100780.53;2614288;36;20031;-45
2021/08/20 10:50:20;;;;;;;9.55;8.55;;;;;;;27.07;50.56;100790.72;2614033;31;20037;-46
2021/08/20 10:52:49;;;;;;;13.80;9.82;;;;;;;25.48;52.61;100778.34;2578173;36;2004738;-45
2021/08/20 10:55:21;;;;;;;11.05;8.77;;;;;;;26.37;53.63;100790.88;2614265;36;20030;-47
2021/08/20 10:57:51;;;;;;;9.13;7.90;;;;;;;27.44;46.21;100783.09;2614368;31;20480;-50
2021/08/20 11:00:19;;;;;;;12.35;7.93;;;;;;;28.71;45.68;100788.75;2614521;31;20073;-49
2021/08/20 11:03:10;;;;;;;10.02;8.88;;;;;;;29.63;40.05;100792.97;2613977;36;20042;-49
2021/08/20 11:05:44;;;;;;;9.95;7.53;;;;;;;29.58;40.35;100792.34;2614554;31;20423;-50
2021/08/20 11:08:34;;;;;;;10.32;8.00;;;;;;;28.40;43.83;100790.22;2614179;31;20582;-48
2021/08/20 11:11:02;;;;;;;10.40;8.30;;;;;;;28.62;42.13;100787.41;2577615;36;2005349;-48
2021/08/20 11:13:30;;;;;;;11.45;7.78;;;;;;;26.49;47.11;100779.94;2614044;36;20057;-49